sensor_id;sensor_type;location;lat;lon;timestamp;P1;durP1;ratioP1;P2;durP2;ratioP2
60060;SDS011;45933;51.336;12.612;2022-07-29T00:02:23;5.28;;;2.00;;
60060;SDS011;45933;51.336;12.612;2022-07-29T00:04:49;5.32;;;2.42;;
60060;SDS011;45933;51.336;12.612;2022-07-29T00:07:14;4.85;;;2.25;;
60060;SDS011;45933;51.336;12.612;2022-07-29T00:09:40;6.47;;;2.35;;
60060;SDS011;45933;51.336;12.612;2022-07-29T00:12:05;5.10;;;2.50;;
60060;SDS011;45933;51.336;12.612;2022-07-29T00:14:31;7.20;;;2.60;;
60060;SDS011;45933;51.336;12.612;2022-07-29T00:16:56;9.77;;;2.70;;
60060;SDS011;45933;51.336;12.612;2022-07-29T00:19:21;5.82;;;2.67;;
60060;SDS011;45933;51.336;12.612;2022-07-29T00:21:47;6.65;;;2.33;;
60060;SDS011;45933;51.336;12.612;2022-07-29T00:24:12;5.72;;;2.10;;
60060;SDS011;45933;51.336;12.612;2022-07-29T00:26:38;4.28;;;2.20;;
60060;SDS011;45933;51.336;12.612;2022-07-29T00:29:03;4.75;;;2.25;;
60060;SDS011;45933;51.336;12.612;2022-07-29T00:31:29;6.47;;;2.28;;
60060;SDS011;45933;51.336;12.612;2022-07-29T00:33:55;5.07;;;2.53;;
60060;SDS011;45933;51.336;12.612;2022-07-29T00:36:21;4.30;;;1.73;;
60060;SDS011;45933;51.336;12.612;2022-07-29T00:38:50;7.15;;;2.05;;
60060;SDS011;45933;51.336;12.612;2022-07-29T00:41:16;3.28;;;1.85;;
60060;SDS011;45933;51.336;12.612;2022-07-29T00:43:42;5.90;;;1.95;;
60060;SDS011;45933;51.336;12.612;2022-07-29T00:46:08;3.08;;;1.90;;
60060;SDS011;45933;51.336;12.612;2022-07-29T00:48:34;3.35;;;1.98;;
60060;SDS011;45933;51.336;12.612;2022-07-29T00:50:59;6.78;;;2.00;;
60060;SDS011;45933;51.336;12.612;2022-07-29T00:53:27;3.50;;;1.95;;
60060;SDS011;45933;51.336;12.612;2022-07-29T00:55:54;4.32;;;2.25;;
60060;SDS011;45933;51.336;12.612;2022-07-29T00:58:20;4.20;;;1.98;;
60060;SDS011;45933;51.336;12.612;2022-07-29T01:00:46;4.78;;;2.08;;
60060;SDS011;45933;51.336;12.612;2022-07-29T01:03:11;3.38;;;1.92;;
60060;SDS011;45933;51.336;12.612;2022-07-29T01:05:37;10.52;;;2.15;;
60060;SDS011;45933;51.336;12.612;2022-07-29T01:08:05;6.10;;;2.08;;
60060;SDS011;45933;51.336;12.612;2022-07-29T01:10:31;6.10;;;2.05;;
60060;SDS011;45933;51.336;12.612;2022-07-29T01:12:57;6.00;;;2.00;;
60060;SDS011;45933;51.336;12.612;2022-07-29T01:15:24;4.03;;;2.17;;
60060;SDS011;45933;51.336;12.612;2022-07-29T01:20:33;6.07;;;2.38;;
60060;SDS011;45933;51.336;12.612;2022-07-29T01:23:33;5.65;;;2.42;;
60060;SDS011;45933;51.336;12.612;2022-07-29T01:32:05;6.95;;;2.05;;
60060;SDS011;45933;51.336;12.612;2022-07-29T01:40:26;5.53;;;1.67;;
60060;SDS011;45933;51.336;12.612;2022-07-29T01:42:55;5.18;;;1.92;;
60060;SDS011;45933;51.336;12.612;2022-07-29T01:45:24;4.45;;;1.77;;
60060;SDS011;45933;51.336;12.612;2022-07-29T01:51:19;3.13;;;2.00;;
60060;SDS011;45933;51.336;12.612;2022-07-29T01:53:48;6.03;;;1.95;;
60060;SDS011;45933;51.336;12.612;2022-07-29T01:56:18;6.15;;;2.08;;
60060;SDS011;45933;51.336;12.612;2022-07-29T01:58:46;5.80;;;1.90;;
60060;SDS011;45933;51.336;12.612;2022-07-29T02:01:14;7.25;;;2.15;;
60060;SDS011;45933;51.336;12.612;2022-07-29T02:03:41;3.88;;;1.73;;
60060;SDS011;45933;51.336;12.612;2022-07-29T02:06:09;3.33;;;1.70;;
60060;SDS011;45933;51.336;12.612;2022-07-29T02:08:37;8.48;;;1.70;;
60060;SDS011;45933;51.336;12.612;2022-07-29T02:11:04;5.85;;;1.75;;
60060;SDS011;45933;51.336;12.612;2022-07-29T02:13:32;3.88;;;1.80;;
60060;SDS011;45933;51.336;12.612;2022-07-29T02:16:00;6.72;;;1.80;;
60060;SDS011;45933;51.336;12.612;2022-07-29T02:18:30;5.53;;;1.55;;
60060;SDS011;45933;51.336;12.612;2022-07-29T02:20:57;4.97;;;1.70;;
60060;SDS011;45933;51.336;12.612;2022-07-29T02:23:24;2.75;;;1.60;;
60060;SDS011;45933;51.336;12.612;2022-07-29T02:25:51;8.30;;;2.05;;
60060;SDS011;45933;51.336;12.612;2022-07-29T02:28:20;4.82;;;1.80;;
60060;SDS011;45933;51.336;12.612;2022-07-29T02:30:48;3.45;;;1.75;;
60060;SDS011;45933;51.336;12.612;2022-07-29T02:33:17;7.15;;;1.60;;
60060;SDS011;45933;51.336;12.612;2022-07-29T02:35:45;5.65;;;1.90;;
60060;SDS011;45933;51.336;12.612;2022-07-29T02:38:12;4.05;;;1.70;;
60060;SDS011;45933;51.336;12.612;2022-07-29T02:40:58;4.32;;;2.10;;
60060;SDS011;45933;51.336;12.612;2022-07-29T02:43:26;2.88;;;1.98;;
60060;SDS011;45933;51.336;12.612;2022-07-29T02:45:53;4.97;;;1.67;;
60060;SDS011;45933;51.336;12.612;2022-07-29T02:48:21;5.90;;;1.95;;
60060;SDS011;45933;51.336;12.612;2022-07-29T02:50:54;3.40;;;1.90;;
60060;SDS011;45933;51.336;12.612;2022-07-29T02:53:26;4.38;;;1.73;;
60060;SDS011;45933;51.336;12.612;2022-07-29T02:55:56;5.00;;;1.83;;
60060;SDS011;45933;51.336;12.612;2022-07-29T02:58:27;3.95;;;2.00;;
60060;SDS011;45933;51.336;12.612;2022-07-29T03:00:56;7.95;;;2.10;;
60060;SDS011;45933;51.336;12.612;2022-07-29T03:03:25;10.50;;;1.95;;
60060;SDS011;45933;51.336;12.612;2022-07-29T03:05:55;4.35;;;1.80;;
60060;SDS011;45933;51.336;12.612;2022-07-29T03:08:22;5.43;;;2.20;;
60060;SDS011;45933;51.336;12.612;2022-07-29T03:10:48;7.43;;;1.92;;
60060;SDS011;45933;51.336;12.612;2022-07-29T03:13:15;4.00;;;1.90;;
60060;SDS011;45933;51.336;12.612;2022-07-29T03:15:44;5.85;;;2.33;;
60060;SDS011;45933;51.336;12.612;2022-07-29T03:18:10;3.65;;;1.95;;
60060;SDS011;45933;51.336;12.612;2022-07-29T03:20:37;5.20;;;2.65;;
60060;SDS011;45933;51.336;12.612;2022-07-29T03:23:03;6.70;;;2.20;;
60060;SDS011;45933;51.336;12.612;2022-07-29T03:25:29;4.60;;;1.88;;
60060;SDS011;45933;51.336;12.612;2022-07-29T03:27:54;5.20;;;2.25;;
60060;SDS011;45933;51.336;12.612;2022-07-29T03:30:21;4.88;;;1.80;;
60060;SDS011;45933;51.336;12.612;2022-07-29T03:32:47;7.20;;;2.58;;
60060;SDS011;45933;51.336;12.612;2022-07-29T03:35:14;5.15;;;2.00;;
60060;SDS011;45933;51.336;12.612;2022-07-29T03:37:41;5.40;;;2.20;;
60060;SDS011;45933;51.336;12.612;2022-07-29T03:40:07;5.15;;;2.35;;
60060;SDS011;45933;51.336;12.612;2022-07-29T03:42:35;4.88;;;2.20;;
60060;SDS011;45933;51.336;12.612;2022-07-29T03:45:04;3.55;;;1.90;;
60060;SDS011;45933;51.336;12.612;2022-07-29T03:47:33;4.63;;;2.15;;
60060;SDS011;45933;51.336;12.612;2022-07-29T03:50:02;2.45;;;1.88;;
60060;SDS011;45933;51.336;12.612;2022-07-29T03:52:30;6.18;;;2.00;;
60060;SDS011;45933;51.336;12.612;2022-07-29T03:54:56;4.05;;;1.85;;
60060;SDS011;45933;51.336;12.612;2022-07-29T03:57:23;5.75;;;2.38;;
60060;SDS011;45933;51.336;12.612;2022-07-29T03:59:51;2.92;;;1.73;;
60060;SDS011;45933;51.336;12.612;2022-07-29T04:02:17;4.68;;;2.10;;
60060;SDS011;45933;51.336;12.612;2022-07-29T04:04:43;4.05;;;2.13;;
60060;SDS011;45933;51.336;12.612;2022-07-29T04:07:11;7.68;;;2.10;;
60060;SDS011;45933;51.336;12.612;2022-07-29T04:09:37;5.15;;;2.35;;
60060;SDS011;45933;51.336;12.612;2022-07-29T04:12:03;5.78;;;2.05;;
60060;SDS011;45933;51.336;12.612;2022-07-29T04:14:29;6.25;;;2.00;;
60060;SDS011;45933;51.336;12.612;2022-07-29T04:16:55;6.30;;;2.00;;
60060;SDS011;45933;51.336;12.612;2022-07-29T04:19:21;6.10;;;2.33;;
60060;SDS011;45933;51.336;12.612;2022-07-29T04:21:46;7.03;;;2.17;;
60060;SDS011;45933;51.336;12.612;2022-07-29T04:24:11;3.88;;;2.10;;
60060;SDS011;45933;51.336;12.612;2022-07-29T04:26:37;6.30;;;2.15;;
60060;SDS011;45933;51.336;12.612;2022-07-29T04:29:03;7.25;;;2.10;;
60060;SDS011;45933;51.336;12.612;2022-07-29T04:31:28;3.85;;;2.20;;
60060;SDS011;45933;51.336;12.612;2022-07-29T04:33:54;7.05;;;2.15;;
60060;SDS011;45933;51.336;12.612;2022-07-29T04:36:19;10.20;;;2.20;;
60060;SDS011;45933;51.336;12.612;2022-07-29T04:38:44;6.43;;;2.60;;
60060;SDS011;45933;51.336;12.612;2022-07-29T04:41:10;4.43;;;2.00;;
60060;SDS011;45933;51.336;12.612;2022-07-29T04:43:35;3.88;;;2.30;;
60060;SDS011;45933;51.336;12.612;2022-07-29T04:46:05;5.03;;;2.28;;
60060;SDS011;45933;51.336;12.612;2022-07-29T04:48:31;5.78;;;2.15;;
60060;SDS011;45933;51.336;12.612;2022-07-29T04:50:56;4.85;;;2.42;;
60060;SDS011;45933;51.336;12.612;2022-07-29T04:53:22;5.32;;;2.00;;
60060;SDS011;45933;51.336;12.612;2022-07-29T04:55:48;4.07;;;1.90;;
60060;SDS011;45933;51.336;12.612;2022-07-29T04:58:13;5.80;;;2.17;;
60060;SDS011;45933;51.336;12.612;2022-07-29T05:00:39;7.20;;;2.58;;
60060;SDS011;45933;51.336;12.612;2022-07-29T05:03:05;4.40;;;1.95;;
60060;SDS011;45933;51.336;12.612;2022-07-29T05:05:30;4.38;;;1.98;;
60060;SDS011;45933;51.336;12.612;2022-07-29T05:07:56;11.05;;;2.65;;
60060;SDS011;45933;51.336;12.612;2022-07-29T05:10:21;5.18;;;2.22;;
60060;SDS011;45933;51.336;12.612;2022-07-29T05:12:47;5.60;;;2.13;;
60060;SDS011;45933;51.336;12.612;2022-07-29T05:15:13;7.35;;;2.47;;
60060;SDS011;45933;51.336;12.612;2022-07-29T05:17:39;5.05;;;2.20;;
60060;SDS011;45933;51.336;12.612;2022-07-29T05:20:04;6.25;;;2.60;;
60060;SDS011;45933;51.336;12.612;2022-07-29T05:22:31;4.30;;;2.20;;
60060;SDS011;45933;51.336;12.612;2022-07-29T05:24:56;5.75;;;2.20;;
60060;SDS011;45933;51.336;12.612;2022-07-29T05:27:22;5.03;;;2.70;;
60060;SDS011;45933;51.336;12.612;2022-07-29T05:29:47;7.50;;;2.50;;
60060;SDS011;45933;51.336;12.612;2022-07-29T05:32:13;5.43;;;2.22;;
60060;SDS011;45933;51.336;12.612;2022-07-29T05:34:38;5.05;;;2.08;;
60060;SDS011;45933;51.336;12.612;2022-07-29T05:37:04;5.65;;;2.13;;
60060;SDS011;45933;51.336;12.612;2022-07-29T05:39:30;5.25;;;2.00;;
60060;SDS011;45933;51.336;12.612;2022-07-29T05:41:55;10.88;;;2.45;;
60060;SDS011;45933;51.336;12.612;2022-07-29T05:44:20;7.43;;;2.28;;
60060;SDS011;45933;51.336;12.612;2022-07-29T05:46:46;6.30;;;2.13;;
60060;SDS011;45933;51.336;12.612;2022-07-29T05:49:11;13.05;;;3.22;;
60060;SDS011;45933;51.336;12.612;2022-07-29T05:51:37;4.70;;;1.88;;
60060;SDS011;45933;51.336;12.612;2022-07-29T05:54:02;5.97;;;2.00;;
60060;SDS011;45933;51.336;12.612;2022-07-29T05:56:27;4.00;;;2.20;;
60060;SDS011;45933;51.336;12.612;2022-07-29T05:58:53;3.58;;;1.90;;
60060;SDS011;45933;51.336;12.612;2022-07-29T06:01:18;5.95;;;2.28;;
60060;SDS011;45933;51.336;12.612;2022-07-29T06:03:44;11.15;;;2.00;;
60060;SDS011;45933;51.336;12.612;2022-07-29T06:06:09;6.65;;;2.13;;
60060;SDS011;45933;51.336;12.612;2022-07-29T06:08:35;3.20;;;1.67;;
60060;SDS011;45933;51.336;12.612;2022-07-29T06:11:01;6.68;;;2.03;;
60060;SDS011;45933;51.336;12.612;2022-07-29T06:13:27;3.55;;;2.10;;
60060;SDS011;45933;51.336;12.612;2022-07-29T06:15:53;4.97;;;2.28;;
60060;SDS011;45933;51.336;12.612;2022-07-29T06:18:18;7.57;;;2.13;;
60060;SDS011;45933;51.336;12.612;2022-07-29T06:20:45;10.50;;;2.47;;
60060;SDS011;45933;51.336;12.612;2022-07-29T06:23:11;6.45;;;2.30;;
60060;SDS011;45933;51.336;12.612;2022-07-29T06:25:36;4.50;;;2.13;;
60060;SDS011;45933;51.336;12.612;2022-07-29T06:28:03;6.28;;;2.75;;
60060;SDS011;45933;51.336;12.612;2022-07-29T06:30:28;10.20;;;2.47;;
60060;SDS011;45933;51.336;12.612;2022-07-29T06:32:54;11.00;;;2.40;;
60060;SDS011;45933;51.336;12.612;2022-07-29T06:35:20;5.80;;;2.20;;
60060;SDS011;45933;51.336;12.612;2022-07-29T06:37:45;7.85;;;2.33;;
60060;SDS011;45933;51.336;12.612;2022-07-29T06:40:11;8.98;;;2.30;;
60060;SDS011;45933;51.336;12.612;2022-07-29T06:42:55;6.50;;;2.40;;
60060;SDS011;45933;51.336;12.612;2022-07-29T06:45:20;6.00;;;2.75;;
60060;SDS011;45933;51.336;12.612;2022-07-29T06:47:46;6.72;;;2.53;;
60060;SDS011;45933;51.336;12.612;2022-07-29T06:50:11;4.72;;;2.85;;
60060;SDS011;45933;51.336;12.612;2022-07-29T06:52:37;7.38;;;2.75;;
60060;SDS011;45933;51.336;12.612;2022-07-29T06:55:03;11.15;;;2.88;;
60060;SDS011;45933;51.336;12.612;2022-07-29T06:57:29;5.50;;;2.42;;
60060;SDS011;45933;51.336;12.612;2022-07-29T06:59:58;6.32;;;2.78;;
60060;SDS011;45933;51.336;12.612;2022-07-29T07:02:23;5.43;;;2.20;;
60060;SDS011;45933;51.336;12.612;2022-07-29T07:04:48;7.85;;;2.72;;
60060;SDS011;45933;51.336;12.612;2022-07-29T07:07:14;7.18;;;2.50;;
60060;SDS011;45933;51.336;12.612;2022-07-29T07:09:39;5.25;;;2.65;;
60060;SDS011;45933;51.336;12.612;2022-07-29T07:12:05;5.53;;;2.30;;
60060;SDS011;45933;51.336;12.612;2022-07-29T07:14:31;5.03;;;2.17;;
60060;SDS011;45933;51.336;12.612;2022-07-29T07:16:56;4.60;;;2.40;;
60060;SDS011;45933;51.336;12.612;2022-07-29T07:19:22;6.65;;;2.40;;
60060;SDS011;45933;51.336;12.612;2022-07-29T07:21:47;7.38;;;2.03;;
60060;SDS011;45933;51.336;12.612;2022-07-29T07:24:13;3.85;;;2.10;;
60060;SDS011;45933;51.336;12.612;2022-07-29T07:26:38;6.45;;;2.20;;
60060;SDS011;45933;51.336;12.612;2022-07-29T07:29:04;3.97;;;2.15;;
60060;SDS011;45933;51.336;12.612;2022-07-29T07:31:30;6.38;;;2.20;;
60060;SDS011;45933;51.336;12.612;2022-07-29T07:33:55;7.97;;;2.28;;
60060;SDS011;45933;51.336;12.612;2022-07-29T07:36:21;4.60;;;2.63;;
60060;SDS011;45933;51.336;12.612;2022-07-29T07:38:47;7.85;;;2.13;;
60060;SDS011;45933;51.336;12.612;2022-07-29T07:41:12;6.00;;;2.80;;
60060;SDS011;45933;51.336;12.612;2022-07-29T07:43:38;6.05;;;2.38;;
60060;SDS011;45933;51.336;12.612;2022-07-29T07:46:03;4.20;;;2.08;;
60060;SDS011;45933;51.336;12.612;2022-07-29T07:48:29;7.10;;;2.58;;
60060;SDS011;45933;51.336;12.612;2022-07-29T07:50:54;6.32;;;2.05;;
60060;SDS011;45933;51.336;12.612;2022-07-29T07:53:20;4.00;;;2.17;;
60060;SDS011;45933;51.336;12.612;2022-07-29T07:55:45;4.22;;;1.95;;
60060;SDS011;45933;51.336;12.612;2022-07-29T07:58:11;8.43;;;2.78;;
60060;SDS011;45933;51.336;12.612;2022-07-29T08:00:36;9.07;;;2.70;;
60060;SDS011;45933;51.336;12.612;2022-07-29T08:03:02;5.32;;;2.38;;
60060;SDS011;45933;51.336;12.612;2022-07-29T08:05:28;6.28;;;2.67;;
60060;SDS011;45933;51.336;12.612;2022-07-29T08:07:53;6.78;;;2.78;;
60060;SDS011;45933;51.336;12.612;2022-07-29T08:10:19;7.70;;;2.97;;
60060;SDS011;45933;51.336;12.612;2022-07-29T08:13:07;7.45;;;3.00;;
60060;SDS011;45933;51.336;12.612;2022-07-29T08:15:33;7.03;;;3.10;;
60060;SDS011;45933;51.336;12.612;2022-07-29T08:17:59;9.90;;;3.33;;
60060;SDS011;45933;51.336;12.612;2022-07-29T08:20:25;8.10;;;3.70;;
60060;SDS011;45933;51.336;12.612;2022-07-29T08:22:51;5.15;;;3.25;;
60060;SDS011;45933;51.336;12.612;2022-07-29T08:25:17;8.77;;;4.38;;
60060;SDS011;45933;51.336;12.612;2022-07-29T08:27:45;9.07;;;5.10;;
60060;SDS011;45933;51.336;12.612;2022-07-29T08:30:11;6.57;;;3.97;;
60060;SDS011;45933;51.336;12.612;2022-07-29T08:32:36;8.70;;;4.35;;
60060;SDS011;45933;51.336;12.612;2022-07-29T08:35:01;9.05;;;4.20;;
60060;SDS011;45933;51.336;12.612;2022-07-29T08:37:27;13.88;;;4.03;;
60060;SDS011;45933;51.336;12.612;2022-07-29T08:39:52;9.60;;;4.13;;
60060;SDS011;45933;51.336;12.612;2022-07-29T08:42:18;10.25;;;4.75;;
60060;SDS011;45933;51.336;12.612;2022-07-29T08:44:43;9.23;;;4.40;;
60060;SDS011;45933;51.336;12.612;2022-07-29T08:47:09;7.22;;;4.57;;
60060;SDS011;45933;51.336;12.612;2022-07-29T08:49:38;7.55;;;4.43;;
60060;SDS011;45933;51.336;12.612;2022-07-29T08:52:04;10.05;;;4.60;;
60060;SDS011;45933;51.336;12.612;2022-07-29T08:54:30;9.07;;;4.05;;
60060;SDS011;45933;51.336;12.612;2022-07-29T08:56:56;7.47;;;4.68;;
60060;SDS011;45933;51.336;12.612;2022-07-29T08:59:24;8.68;;;4.43;;
60060;SDS011;45933;51.336;12.612;2022-07-29T09:01:52;15.02;;;5.05;;
60060;SDS011;45933;51.336;12.612;2022-07-29T09:04:18;5.13;;;3.72;;
60060;SDS011;45933;51.336;12.612;2022-07-29T09:06:47;6.88;;;3.42;;
60060;SDS011;45933;51.336;12.612;2022-07-29T09:09:14;6.38;;;3.60;;
60060;SDS011;45933;51.336;12.612;2022-07-29T09:11:40;6.95;;;3.47;;
60060;SDS011;45933;51.336;12.612;2022-07-29T09:14:07;5.25;;;3.05;;
60060;SDS011;45933;51.336;12.612;2022-07-29T09:16:52;6.57;;;3.30;;
60060;SDS011;45933;51.336;12.612;2022-07-29T09:19:23;7.90;;;2.97;;
60060;SDS011;45933;51.336;12.612;2022-07-29T09:21:53;7.70;;;2.97;;
60060;SDS011;45933;51.336;12.612;2022-07-29T09:24:22;7.03;;;2.92;;
60060;SDS011;45933;51.336;12.612;2022-07-29T09:26:48;7.72;;;2.72;;
60060;SDS011;45933;51.336;12.612;2022-07-29T09:29:14;4.70;;;2.83;;
60060;SDS011;45933;51.336;12.612;2022-07-29T09:31:42;4.53;;;3.05;;
60060;SDS011;45933;51.336;12.612;2022-07-29T09:34:13;5.32;;;2.85;;
60060;SDS011;45933;51.336;12.612;2022-07-29T09:39:10;4.22;;;2.97;;
60060;SDS011;45933;51.336;12.612;2022-07-29T09:41:46;4.35;;;2.67;;
60060;SDS011;45933;51.336;12.612;2022-07-29T09:44:15;7.63;;;2.90;;
60060;SDS011;45933;51.336;12.612;2022-07-29T09:46:52;5.10;;;2.88;;
60060;SDS011;45933;51.336;12.612;2022-07-29T09:49:21;5.25;;;3.05;;
60060;SDS011;45933;51.336;12.612;2022-07-29T09:51:47;5.22;;;2.88;;
60060;SDS011;45933;51.336;12.612;2022-07-29T09:54:25;9.88;;;3.08;;
60060;SDS011;45933;51.336;12.612;2022-07-29T09:56:52;5.80;;;3.03;;
60060;SDS011;45933;51.336;12.612;2022-07-29T09:59:19;5.10;;;3.00;;
60060;SDS011;45933;51.336;12.612;2022-07-29T10:01:47;7.15;;;3.42;;
60060;SDS011;45933;51.336;12.612;2022-07-29T10:04:15;5.32;;;3.28;;
60060;SDS011;45933;51.336;12.612;2022-07-29T10:06:59;10.27;;;3.65;;
60060;SDS011;45933;51.336;12.612;2022-07-29T10:09:27;7.57;;;2.83;;
60060;SDS011;45933;51.336;12.612;2022-07-29T10:12:05;10.73;;;3.60;;
60060;SDS011;45933;51.336;12.612;2022-07-29T10:14:33;6.38;;;3.45;;
60060;SDS011;45933;51.336;12.612;2022-07-29T10:16:59;6.65;;;3.40;;
60060;SDS011;45933;51.336;12.612;2022-07-29T10:19:27;5.82;;;4.13;;
60060;SDS011;45933;51.336;12.612;2022-07-29T10:21:53;6.97;;;3.75;;
60060;SDS011;45933;51.336;12.612;2022-07-29T10:24:19;11.52;;;3.80;;
60060;SDS011;45933;51.336;12.612;2022-07-29T10:26:45;5.25;;;3.65;;
60060;SDS011;45933;51.336;12.612;2022-07-29T10:29:12;10.38;;;4.57;;
60060;SDS011;45933;51.336;12.612;2022-07-29T10:31:48;7.38;;;3.88;;
60060;SDS011;45933;51.336;12.612;2022-07-29T10:34:32;7.88;;;3.45;;
60060;SDS011;45933;51.336;12.612;2022-07-29T10:37:31;7.20;;;3.80;;
60060;SDS011;45933;51.336;12.612;2022-07-29T10:43:24;9.32;;;4.05;;
60060;SDS011;45933;51.336;12.612;2022-07-29T10:45:56;7.80;;;3.63;;
60060;SDS011;45933;51.336;12.612;2022-07-29T10:48:24;7.93;;;3.95;;
60060;SDS011;45933;51.336;12.612;2022-07-29T10:50:57;7.13;;;3.90;;
60060;SDS011;45933;51.336;12.612;2022-07-29T10:53:45;9.02;;;4.28;;
60060;SDS011;45933;51.336;12.612;2022-07-29T10:56:24;8.32;;;4.20;;
60060;SDS011;45933;51.336;12.612;2022-07-29T11:01:57;6.88;;;3.70;;
60060;SDS011;45933;51.336;12.612;2022-07-29T11:07:10;6.50;;;3.92;;
60060;SDS011;45933;51.336;12.612;2022-07-29T11:09:36;8.73;;;3.63;;
60060;SDS011;45933;51.336;12.612;2022-07-29T11:12:03;11.35;;;4.50;;
60060;SDS011;45933;51.336;12.612;2022-07-29T11:17:24;8.07;;;4.10;;
60060;SDS011;45933;51.336;12.612;2022-07-29T11:19:49;10.52;;;4.60;;
60060;SDS011;45933;51.336;12.612;2022-07-29T11:22:34;7.28;;;4.30;;
60060;SDS011;45933;51.336;12.612;2022-07-29T11:25:13;6.70;;;3.90;;
60060;SDS011;45933;51.336;12.612;2022-07-29T11:27:40;6.85;;;4.40;;
60060;SDS011;45933;51.336;12.612;2022-07-29T11:30:06;8.27;;;4.30;;
60060;SDS011;45933;51.336;12.612;2022-07-29T11:32:40;7.07;;;4.22;;
60060;SDS011;45933;51.336;12.612;2022-07-29T11:35:22;9.93;;;4.28;;
60060;SDS011;45933;51.336;12.612;2022-07-29T11:43:47;5.25;;;4.00;;
60060;SDS011;45933;51.336;12.612;2022-07-29T11:46:13;8.02;;;4.10;;
60060;SDS011;45933;51.336;12.612;2022-07-29T11:48:43;6.55;;;4.38;;
60060;SDS011;45933;51.336;12.612;2022-07-29T11:51:10;8.88;;;4.70;;
60060;SDS011;45933;51.336;12.612;2022-07-29T11:53:39;10.50;;;4.93;;
60060;SDS011;45933;51.336;12.612;2022-07-29T11:56:07;6.70;;;4.15;;
60060;SDS011;45933;51.336;12.612;2022-07-29T11:58:34;9.07;;;4.10;;
60060;SDS011;45933;51.336;12.612;2022-07-29T12:01:00;9.27;;;4.50;;
60060;SDS011;45933;51.336;12.612;2022-07-29T12:03:26;4.80;;;4.00;;
60060;SDS011;45933;51.336;12.612;2022-07-29T12:05:53;5.72;;;4.35;;
60060;SDS011;45933;51.336;12.612;2022-07-29T12:08:20;6.38;;;4.60;;
60060;SDS011;45933;51.336;12.612;2022-07-29T12:10:47;6.22;;;4.60;;
60060;SDS011;45933;51.336;12.612;2022-07-29T12:13:15;11.52;;;5.25;;
60060;SDS011;45933;51.336;12.612;2022-07-29T12:15:42;7.85;;;4.95;;
60060;SDS011;45933;51.336;12.612;2022-07-29T12:18:17;9.98;;;4.93;;
60060;SDS011;45933;51.336;12.612;2022-07-29T12:20:45;8.07;;;4.72;;
60060;SDS011;45933;51.336;12.612;2022-07-29T12:23:11;6.32;;;4.72;;
60060;SDS011;45933;51.336;12.612;2022-07-29T12:25:38;5.93;;;4.90;;
60060;SDS011;45933;51.336;12.612;2022-07-29T12:28:06;5.70;;;4.50;;
60060;SDS011;45933;51.336;12.612;2022-07-29T12:30:41;6.28;;;4.18;;
60060;SDS011;45933;51.336;12.612;2022-07-29T12:33:31;5.88;;;4.63;;
60060;SDS011;45933;51.336;12.612;2022-07-29T12:36:00;9.65;;;4.32;;
60060;SDS011;45933;51.336;12.612;2022-07-29T12:38:26;7.18;;;4.63;;
60060;SDS011;45933;51.336;12.612;2022-07-29T12:40:52;8.55;;;4.22;;
60060;SDS011;45933;51.336;12.612;2022-07-29T12:43:22;9.27;;;4.10;;
60060;SDS011;45933;51.336;12.612;2022-07-29T12:45:50;4.90;;;4.40;;
60060;SDS011;45933;51.336;12.612;2022-07-29T12:48:17;4.65;;;4.05;;
60060;SDS011;45933;51.336;12.612;2022-07-29T12:50:58;8.30;;;4.60;;
60060;SDS011;45933;51.336;12.612;2022-07-29T12:53:26;5.47;;;4.00;;
60060;SDS011;45933;51.336;12.612;2022-07-29T12:55:52;6.78;;;4.00;;
60060;SDS011;45933;51.336;12.612;2022-07-29T12:58:26;9.40;;;4.63;;
60060;SDS011;45933;51.336;12.612;2022-07-29T13:01:07;11.73;;;4.03;;
60060;SDS011;45933;51.336;12.612;2022-07-29T13:03:43;5.22;;;3.70;;
60060;SDS011;45933;51.336;12.612;2022-07-29T13:06:26;7.10;;;3.63;;
60060;SDS011;45933;51.336;12.612;2022-07-29T13:09:12;4.00;;;3.13;;
60060;SDS011;45933;51.336;12.612;2022-07-29T13:11:48;5.22;;;3.22;;
60060;SDS011;45933;51.336;12.612;2022-07-29T13:14:32;4.70;;;3.30;;
60060;SDS011;45933;51.336;12.612;2022-07-29T13:17:00;3.92;;;3.45;;
60060;SDS011;45933;51.336;12.612;2022-07-29T13:19:49;4.05;;;3.65;;
60060;SDS011;45933;51.336;12.612;2022-07-29T13:22:17;6.13;;;3.42;;
60060;SDS011;45933;51.336;12.612;2022-07-29T13:24:47;7.28;;;3.60;;
60060;SDS011;45933;51.336;12.612;2022-07-29T13:27:23;5.28;;;3.63;;
60060;SDS011;45933;51.336;12.612;2022-07-29T13:29:49;5.80;;;3.50;;
60060;SDS011;45933;51.336;12.612;2022-07-29T13:32:21;8.93;;;3.60;;
60060;SDS011;45933;51.336;12.612;2022-07-29T13:34:47;5.10;;;3.88;;
60060;SDS011;45933;51.336;12.612;2022-07-29T13:37:12;4.80;;;3.65;;
60060;SDS011;45933;51.336;12.612;2022-07-29T13:39:38;7.47;;;4.03;;
60060;SDS011;45933;51.336;12.612;2022-07-29T13:42:04;5.63;;;4.22;;
60060;SDS011;45933;51.336;12.612;2022-07-29T13:44:31;6.35;;;5.20;;
60060;SDS011;45933;51.336;12.612;2022-07-29T13:46:56;5.40;;;3.90;;
60060;SDS011;45933;51.336;12.612;2022-07-29T13:49:23;5.05;;;3.92;;
60060;SDS011;45933;51.336;12.612;2022-07-29T13:51:49;7.72;;;3.70;;
60060;SDS011;45933;51.336;12.612;2022-07-29T13:54:15;4.53;;;3.45;;
60060;SDS011;45933;51.336;12.612;2022-07-29T13:56:40;8.35;;;4.80;;
60060;SDS011;45933;51.336;12.612;2022-07-29T13:59:06;4.75;;;4.05;;
60060;SDS011;45933;51.336;12.612;2022-07-29T14:01:32;5.63;;;4.25;;
60060;SDS011;45933;51.336;12.612;2022-07-29T14:03:59;7.00;;;3.75;;
60060;SDS011;45933;51.336;12.612;2022-07-29T14:06:24;5.88;;;4.50;;
60060;SDS011;45933;51.336;12.612;2022-07-29T14:08:50;4.78;;;3.85;;
60060;SDS011;45933;51.336;12.612;2022-07-29T14:11:15;4.78;;;4.00;;
60060;SDS011;45933;51.336;12.612;2022-07-29T14:13:41;4.25;;;3.30;;
60060;SDS011;45933;51.336;12.612;2022-07-29T14:16:06;6.28;;;4.43;;
60060;SDS011;45933;51.336;12.612;2022-07-29T14:18:32;4.40;;;3.80;;
60060;SDS011;45933;51.336;12.612;2022-07-29T14:20:58;5.75;;;3.80;;
60060;SDS011;45933;51.336;12.612;2022-07-29T14:23:23;8.10;;;4.07;;
60060;SDS011;45933;51.336;12.612;2022-07-29T14:25:48;4.88;;;3.95;;
60060;SDS011;45933;51.336;12.612;2022-07-29T14:28:14;7.32;;;4.65;;
60060;SDS011;45933;51.336;12.612;2022-07-29T14:30:39;7.05;;;4.18;;
60060;SDS011;45933;51.336;12.612;2022-07-29T14:33:05;5.43;;;4.43;;
60060;SDS011;45933;51.336;12.612;2022-07-29T14:35:30;6.72;;;4.80;;
60060;SDS011;45933;51.336;12.612;2022-07-29T14:37:55;6.13;;;4.13;;
60060;SDS011;45933;51.336;12.612;2022-07-29T14:40:22;7.20;;;3.95;;
60060;SDS011;45933;51.336;12.612;2022-07-29T14:42:47;5.57;;;4.03;;
60060;SDS011;45933;51.336;12.612;2022-07-29T14:45:12;4.93;;;4.25;;
60060;SDS011;45933;51.336;12.612;2022-07-29T14:47:38;5.85;;;3.90;;
60060;SDS011;45933;51.336;12.612;2022-07-29T14:50:04;6.53;;;3.47;;
60060;SDS011;45933;51.336;12.612;2022-07-29T14:52:30;4.78;;;4.05;;
60060;SDS011;45933;51.336;12.612;2022-07-29T14:54:56;4.63;;;4.05;;
60060;SDS011;45933;51.336;12.612;2022-07-29T14:57:22;5.70;;;4.22;;
60060;SDS011;45933;51.336;12.612;2022-07-29T14:59:47;4.15;;;3.75;;
60060;SDS011;45933;51.336;12.612;2022-07-29T15:02:13;5.30;;;4.55;;
60060;SDS011;45933;51.336;12.612;2022-07-29T15:04:38;5.00;;;4.15;;
60060;SDS011;45933;51.336;12.612;2022-07-29T15:07:04;6.60;;;4.00;;
60060;SDS011;45933;51.336;12.612;2022-07-29T15:09:29;7.57;;;4.13;;
60060;SDS011;45933;51.336;12.612;2022-07-29T15:11:55;4.65;;;3.63;;
60060;SDS011;45933;51.336;12.612;2022-07-29T15:14:20;7.55;;;3.55;;
60060;SDS011;45933;51.336;12.612;2022-07-29T15:16:46;7.03;;;3.90;;